Time;durP1;ratioP1;P1;durP2;ratioP2;P2;SDS_P1;SDS_P2;PMS_P1;PMS_P2;Temp;Humidity;BMP_temperature;BMP_pressure;BME280_temperature;BME280_humidity;BME280_pressure;Samples;Min_cycle;Max_cycle;Signal;HPM_P1;HPM_P2
2021/12/12 00:00:33;;;;;;;;;;;2.70;1.00;;;;;;4161846;28;19960;-54
2021/12/12 00:05:09;;;;;;;;;;;2.70;1.00;;;;;;4146759;28;19959;-55
2021/12/12 00:07:12;;;;;;;;;;;2.70;1.00;;;;;;4152097;28;20446;-53
2021/12/12 00:09:16;;;;;;;;;;;2.70;1.00;;;;;;4169139;28;20294;-54
2021/12/12 00:11:21;;;;;;;;;;;2.70;1.00;;;;;;4170119;28;20329;-54
2021/12/12 00:13:25;;;;;;;;;;;2.70;1.00;;;;;;4169374;28;20070;-55
2021/12/12 00:15:27;;;;;;;;;;;2.80;1.00;;;;;;4155472;28;19954;-55
2021/12/12 00:17:29;;;;;;;;;;;2.70;1.00;;;;;;4156353;28;20472;-54
2021/12/12 00:19:31;;;;;;;;;;;2.70;1.00;;;;;;4168834;28;20403;-55
2021/12/12 00:21:33;;;;;;;;;;;2.70;1.00;;;;;;4159564;28;20536;-53
2021/12/12 00:23:35;;;;;;;;;;;2.70;1.00;;;;;;4158010;28;20341;-54
2021/12/12 00:25:40;;;;;;;;;;;2.80;1.00;;;;;;4154206;28;20367;-55
2021/12/12 00:27:42;;;;;;;;;;;2.80;1.00;;;;;;4153952;28;20048;-55
2021/12/12 00:29:43;;;;;;;;;;;2.80;1.00;;;;;;4154718;28;19986;-54
2021/12/12 00:31:46;;;;;;;;;;;2.80;1.00;;;;;;4170619;28;19995;-53
2021/12/12 00:33:50;;;;;;;;;;;2.80;1.00;;;;;;4154433;28;19975;-55
2021/12/12 00:35:52;;;;;;;;;;;2.80;1.00;;;;;;4171373;28;20446;-55
2021/12/12 00:37:59;;;;;;;;;;;2.80;1.00;;;;;;4151863;28;20013;-54
2021/12/12 00:40:06;;;;;;;;;;;2.80;1.00;;;;;;4151604;28;19956;-55
2021/12/12 00:42:16;;;;;;;;;;;2.80;1.00;;;;;;4156969;28;20009;-54
2021/12/12 00:44:17;;;;;;;;;;;2.80;1.00;;;;;;4160000;28;19972;-54
2021/12/12 00:46:20;;;;;;;;;;;2.80;1.00;;;;;;4159256;28;19976;-55
2021/12/12 00:48:23;;;;;;;;;;;2.80;1.00;;;;;;4160316;28;19955;-54
2021/12/12 00:50:30;;;;;;;;;;;2.80;1.00;;;;;;4157990;28;20030;-54
2021/12/12 00:52:32;;;;;;;;;;;2.80;1.00;;;;;;4153250;28;19961;-55
2021/12/12 00:54:34;;;;;;;;;;;2.80;1.00;;;;;;4156886;28;19972;-54
2021/12/12 00:56:36;;;;;;;;;;;2.80;1.00;;;;;;4153155;28;20089;-55
2021/12/12 00:58:38;;;;;;;;;;;2.80;1.00;;;;;;4172316;28;19958;-55
2021/12/12 01:00:47;;;;;;;;;;;2.80;1.00;;;;;;4163708;28;20013;-55
2021/12/12 01:02:49;;;;;;;;;;;2.80;1.00;;;;;;4154013;28;20037;-55
2021/12/12 01:04:52;;;;;;;;;;;2.80;1.00;;;;;;4159866;28;19977;-54
2021/12/12 01:06:56;;;;;;;;;;;2.80;1.00;;;;;;4156463;28;20071;-54
2021/12/12 01:08:59;;;;;;;;;;;2.70;1.00;;;;;;4185074;28;19959;-53
2021/12/12 01:11:05;;;;;;;;;;;2.80;1.00;;;;;;4158867;28;19960;-53
2021/12/12 01:13:07;;;;;;;;;;;2.80;1.00;;;;;;4171099;28;20006;-54
2021/12/12 01:15:16;;;;;;;;;;;2.80;1.00;;;;;;4170427;28;19962;-55
2021/12/12 01:17:20;;;;;;;;;;;2.70;1.00;;;;;;4156359;28;20418;-55
2021/12/12 01:19:26;;;;;;;;;;;2.80;1.00;;;;;;4162267;28;20043;-53
2021/12/12 01:21:34;;;;;;;;;;;2.80;1.00;;;;;;4157499;28;20082;-54
2021/12/12 01:23:48;;;;;;;;;;;2.80;1.00;;;;;;4160191;28;20023;-53
2021/12/12 01:25:51;;;;;;;;;;;2.80;1.00;;;;;;4160823;28;20472;-54
2021/12/12 01:27:53;;;;;;;;;;;2.80;1.00;;;;;;4155460;28;19956;-54
2021/12/12 01:29:55;;;;;;;;;;;2.80;1.00;;;;;;4164703;28;20030;-54
2021/12/12 01:32:00;;;;;;;;;;;2.80;1.00;;;;;;4162885;28;19956;-53
2021/12/12 01:34:10;;;;;;;;;;;2.80;1.00;;;;;;4153249;28;19965;-54
2021/12/12 01:36:22;;;;;;;;;;;2.80;1.00;;;;;;4162802;28;19957;-55
2021/12/12 01:40:46;;;;;;;;;;;2.70;1.00;;;;;;4159203;28;20043;-54
2021/12/12 01:42:59;;;;;;;;;;;2.70;1.00;;;;;;4160911;28;19963;-54
2021/12/12 01:45:10;;;;;;;;;;;2.70;1.00;;;;;;4157652;28;20523;-54
2021/12/12 01:47:18;;;;;;;;;;;2.80;1.00;;;;;;4172029;28;20067;-54
2021/12/12 01:49:22;;;;;;;;;;;2.70;1.00;;;;;;4173740;28;19959;-54
2021/12/12 01:51:25;;;;;;;;;;;2.70;1.00;;;;;;4171838;28;19958;-54
2021/12/12 01:53:29;;;;;;;;;;;2.70;1.00;;;;;;4156264;28;20061;-54
2021/12/12 01:55:37;;;;;;;;;;;2.70;1.00;;;;;;4157523;28;19955;-55
2021/12/12 01:57:39;;;;;;;;;;;2.70;1.00;;;;;;4174866;28;20013;-55
2021/12/12 01:59:43;;;;;;;;;;;2.70;1.00;;;;;;4151193;28;20052;-55
2021/12/12 02:01:47;;;;;;;;;;;2.70;1.00;;;;;;4159203;28;20083;-54
2021/12/12 02:03:52;;;;;;;;;;;2.70;1.00;;;;;;4155044;28;20022;-54
2021/12/12 02:05:54;;;;;;;;;;;2.70;1.00;;;;;;4158981;28;19965;-54
2021/12/12 02:07:58;;;;;;;;;;;2.70;1.00;;;;;;4157943;28;20046;-53
2021/12/12 02:10:03;;;;;;;;;;;2.70;1.00;;;;;;4152928;28;19964;-54
2021/12/12 02:12:06;;;;;;;;;;;2.60;1.00;;;;;;4162353;28;19954;-53
2021/12/12 02:14:11;;;;;;;;;;;2.60;1.00;;;;;;4170094;28;20016;-53
2021/12/12 02:16:13;;;;;;;;;;;2.60;1.00;;;;;;4158560;28;20360;-55
2021/12/12 02:18:17;;;;;;;;;;;2.60;1.00;;;;;;4156578;28;20043;-53
2021/12/12 02:20:41;;;;;;;;;;;2.60;1.00;;;;;;4153906;28;19965;-53
2021/12/12 02:36:32;;;;;;;;;;;2.40;1.00;;;;;;4157646;28;20002;-55
2021/12/12 02:38:35;;;;;;;;;;;2.40;1.00;;;;;;4160436;28;20001;-53
2021/12/12 02:40:40;;;;;;;;;;;2.40;1.00;;;;;;4162296;28;20405;-54
2021/12/12 02:42:42;;;;;;;;;;;2.40;1.00;;;;;;4157415;28;19958;-54
2021/12/12 02:44:44;;;;;;;;;;;2.30;1.00;;;;;;4157779;28;20073;-54
2021/12/12 02:46:48;;;;;;;;;;;2.30;1.00;;;;;;4156129;28;19984;-54
2021/12/12 02:48:52;;;;;;;;;;;2.30;1.00;;;;;;4152932;28;20169;-53
2021/12/12 02:50:55;;;;;;;;;;;2.30;1.00;;;;;;4157826;28;19959;-54
2021/12/12 02:53:07;;;;;;;;;;;2.30;1.00;;;;;;4163483;28;20049;-53
2021/12/12 02:55:15;;;;;;;;;;;2.20;1.00;;;;;;4161225;28;19959;-54
2021/12/12 02:57:17;;;;;;;;;;;2.20;1.00;;;;;;4157343;28;19999;-53
2021/12/12 02:59:21;;;;;;;;;;;2.20;1.00;;;;;;4156187;28;19961;-54
2021/12/12 03:01:27;;;;;;;;;;;2.20;1.00;;;;;;4160149;28;20401;-54
2021/12/12 03:03:30;;;;;;;;;;;2.20;1.00;;;;;;4168115;28;20000;-54
2021/12/12 03:05:35;;;;;;;;;;;2.10;1.00;;;;;;4154057;28;19955;-53
2021/12/12 03:07:37;;;;;;;;;;;2.10;1.00;;;;;;4170919;28;20013;-53
2021/12/12 03:09:41;;;;;;;;;;;2.10;1.00;;;;;;4158262;28;20295;-53
2021/12/12 03:11:43;;;;;;;;;;;2.10;1.00;;;;;;4156504;28;19956;-54
2021/12/12 03:13:45;;;;;;;;;;;2.10;1.00;;;;;;4161286;28;20125;-55
2021/12/12 03:15:48;;;;;;;;;;;2.10;1.00;;;;;;4162030;28;19964;-53
2021/12/12 03:17:51;;;;;;;;;;;2.20;1.00;;;;;;4158654;28;20001;-55
2021/12/12 03:19:55;;;;;;;;;;;2.10;1.00;;;;;;4154428;28;20378;-53
2021/12/12 03:21:57;;;;;;;;;;;2.20;1.00;;;;;;4158296;28;20053;-53
2021/12/12 03:24:01;;;;;;;;;;;2.10;1.00;;;;;;4162806;28;20677;-54
2021/12/12 03:26:05;;;;;;;;;;;2.20;1.00;;;;;;4168113;28;20013;-54
2021/12/12 03:28:08;;;;;;;;;;;2.20;1.00;;;;;;4158430;28;20551;-55
2021/12/12 03:30:10;;;;;;;;;;;2.20;1.00;;;;;;4157658;28;19956;-53
2021/12/12 03:32:13;;;;;;;;;;;2.20;1.00;;;;;;4158111;28;20004;-53
2021/12/12 03:34:18;;;;;;;;;;;2.20;1.00;;;;;;4154518;28;20121;-53
2021/12/12 03:36:20;;;;;;;;;;;2.10;1.00;;;;;;4157016;28;19955;-53
2021/12/12 03:38:27;;;;;;;;;;;2.10;1.00;;;;;;4155186;28;20435;-54
2021/12/12 03:40:31;;;;;;;;;;;2.10;1.00;;;;;;4154831;28;20350;-54
2021/12/12 03:42:33;;;;;;;;;;;2.10;1.00;;;;;;4160770;28;19951;-54
2021/12/12 03:44:36;;;;;;;;;;;2.10;1.00;;;;;;4155419;28;20062;-53
2021/12/12 03:46:38;;;;;;;;;;;2.10;1.00;;;;;;4157305;28;19950;-53
2021/12/12 03:48:42;;;;;;;;;;;2.10;1.00;;;;;;4187089;28;20033;-54
2021/12/12 03:50:46;;;;;;;;;;;2.10;1.00;;;;;;4157363;28;19974;-54
2021/12/12 03:52:48;;;;;;;;;;;2.10;1.00;;;;;;4170368;28;20000;-54
2021/12/12 03:54:51;;;;;;;;;;;2.10;1.00;;;;;;4153719;28;20010;-53
2021/12/12 03:56:53;;;;;;;;;;;2.10;1.00;;;;;;4156866;28;20003;-54
2021/12/12 03:58:55;;;;;;;;;;;2.00;1.00;;;;;;4154852;28;20489;-53
2021/12/12 04:00:57;;;;;;;;;;;2.00;1.00;;;;;;4156673;28;19959;-53
2021/12/12 04:02:59;;;;;;;;;;;2.10;1.00;;;;;;4186553;28;19966;-53
2021/12/12 04:05:01;;;;;;;;;;;2.00;1.00;;;;;;4158457;28;19957;-53
2021/12/12 04:07:09;;;;;;;;;;;2.00;1.00;;;;;;4157633;28;20460;-53
2021/12/12 04:09:11;;;;;;;;;;;2.00;1.00;;;;;;4173309;28;20370;-54
2021/12/12 04:11:16;;;;;;;;;;;2.10;1.00;;;;;;4171365;28;20038;-53
2021/12/12 04:13:17;;;;;;;;;;;2.10;1.00;;;;;;4160046;28;19954;-53
2021/12/12 04:15:19;;;;;;;;;;;2.10;1.00;;;;;;4162029;28;19964;-54
2021/12/12 04:17:23;;;;;;;;;;;2.10;1.00;;;;;;4150146;28;19961;-54
2021/12/12 04:19:25;;;;;;;;;;;2.10;1.00;;;;;;4169610;28;20411;-53
2021/12/12 04:21:28;;;;;;;;;;;2.10;1.00;;;;;;4156705;28;20257;-53
2021/12/12 04:23:30;;;;;;;;;;;2.10;1.00;;;;;;4160197;28;20021;-53
2021/12/12 04:25:32;;;;;;;;;;;2.10;1.00;;;;;;4174659;28;19963;-54
2021/12/12 04:27:34;;;;;;;;;;;2.10;1.00;;;;;;4151943;28;19971;-54
2021/12/12 04:29:40;;;;;;;;;;;2.10;1.00;;;;;;4154213;28;20441;-54
2021/12/12 04:31:50;;;;;;;;;;;2.10;1.00;;;;;;4152040;28;20022;-55
2021/12/12 04:33:52;;;;;;;;;;;2.10;1.00;;;;;;4154786;28;19974;-54
2021/12/12 04:35:54;;;;;;;;;;;2.10;1.00;;;;;;4155262;28;19991;-55
2021/12/12 04:37:57;;;;;;;;;;;2.10;1.00;;;;;;4154175;28;20007;-54
2021/12/12 04:39:59;;;;;;;;;;;2.20;1.00;;;;;;4156043;28;19996;-55
2021/12/12 04:42:05;;;;;;;;;;;2.20;1.00;;;;;;4159673;28;19953;-54
2021/12/12 04:44:07;;;;;;;;;;;2.20;1.00;;;;;;4171065;28;20173;-54
2021/12/12 04:46:11;;;;;;;;;;;2.30;1.00;;;;;;4152589;28;19959;-55
2021/12/12 04:50:47;;;;;;;;;;;2.30;1.00;;;;;;4153893;28;19956;-55
2021/12/12 04:52:48;;;;;;;;;;;2.40;1.00;;;;;;4158658;28;19951;-53
2021/12/12 04:55:00;;;;;;;;;;;2.40;1.00;;;;;;4168669;28;20069;-55
2021/12/12 04:57:01;;;;;;;;;;;2.40;1.00;;;;;;4158333;28;20011;-54
2021/12/12 04:59:06;;;;;;;;;;;2.50;1.00;;;;;;4167213;28;19991;-54
2021/12/12 05:01:27;;;;;;;;;;;2.50;1.00;;;;;;4167155;28;20439;-54
2021/12/12 05:03:48;;;;;;;;;;;2.50;1.00;;;;;;4183876;28;19971;-54
2021/12/12 05:05:54;;;;;;;;;;;2.50;1.00;;;;;;4172270;28;20001;-54
2021/12/12 05:08:03;;;;;;;;;;;2.50;1.00;;;;;;4157063;28;20392;-53
2021/12/12 05:10:24;;;;;;;;;;;2.60;1.00;;;;;;4171001;28;19989;-54
2021/12/12 05:12:29;;;;;;;;;;;2.60;1.00;;;;;;4151962;28;19983;-53
2021/12/12 05:14:33;;;;;;;;;;;2.60;1.00;;;;;;4171718;28;19972;-54
2021/12/12 05:16:38;;;;;;;;;;;2.60;1.00;;;;;;4159891;28;20191;-54
2021/12/12 05:18:48;;;;;;;;;;;2.70;1.00;;;;;;4152168;28;19960;-54
2021/12/12 05:20:59;;;;;;;;;;;2.70;1.00;;;;;;4160020;28;19998;-53
2021/12/12 05:23:03;;;;;;;;;;;2.70;1.00;;;;;;4152612;28;19952;-54
2021/12/12 05:25:06;;;;;;;;;;;2.70;1.00;;;;;;4153383;28;20017;-54
2021/12/12 05:27:10;;;;;;;;;;;2.70;1.00;;;;;;4158795;28;19961;-54
2021/12/12 05:29:15;;;;;;;;;;;2.70;1.00;;;;;;4168741;28;19964;-54
2021/12/12 05:31:18;;;;;;;;;;;2.70;1.00;;;;;;4156544;28;19957;-54
2021/12/12 05:33:20;;;;;;;;;;;2.70;1.00;;;;;;4158446;28;19968;-54
2021/12/12 05:35:24;;;;;;;;;;;2.70;1.00;;;;;;4184365;28;20054;-55
2021/12/12 05:37:26;;;;;;;;;;;2.70;1.00;;;;;;4155720;28;19999;-53
2021/12/12 05:39:30;;;;;;;;;;;2.80;1.00;;;;;;4157815;28;20352;-54
2021/12/12 05:41:32;;;;;;;;;;;2.80;1.00;;;;;;4168204;28;19961;-53
2021/12/12 05:43:34;;;;;;;;;;;2.80;1.00;;;;;;4154119;28;20492;-53
2021/12/12 05:45:36;;;;;;;;;;;2.80;1.00;;;;;;4157539;28;19953;-54
2021/12/12 05:47:38;;;;;;;;;;;2.80;1.00;;;;;;4171104;28;19979;-55
2021/12/12 05:49:41;;;;;;;;;;;2.80;1.00;;;;;;4157595;28;19964;-54
2021/12/12 05:51:42;;;;;;;;;;;2.80;1.00;;;;;;4191139;28;19978;-55
2021/12/12 05:53:44;;;;;;;;;;;2.80;1.00;;;;;;4186616;28;20443;-55
2021/12/12 05:55:47;;;;;;;;;;;2.90;1.00;;;;;;4159440;28;20440;-55
2021/12/12 05:57:56;;;;;;;;;;;2.80;1.00;;;;;;4163007;28;20419;-54
2021/12/12 05:59:58;;;;;;;;;;;2.80;1.00;;;;;;4158235;28;20766;-55
2021/12/12 06:02:04;;;;;;;;;;;2.80;1.00;;;;;;4192312;28;19953;-53
2021/12/12 06:04:06;;;;;;;;;;;2.80;1.00;;;;;;4173960;28;20016;-55
2021/12/12 06:06:10;;;;;;;;;;;2.90;1.00;;;;;;4153990;28;19958;-54
2021/12/12 06:08:12;;;;;;;;;;;2.80;1.00;;;;;;4157703;28;20121;-55
2021/12/12 06:10:15;;;;;;;;;;;2.90;1.00;;;;;;4162933;28;19984;-55
2021/12/12 06:12:18;;;;;;;;;;;2.90;1.00;;;;;;4162040;28;20007;-55
2021/12/12 06:14:21;;;;;;;;;;;2.90;1.00;;;;;;4161743;28;20418;-55
2021/12/12 06:16:23;;;;;;;;;;;2.90;1.00;;;;;;4171449;28;19950;-53
2021/12/12 06:18:26;;;;;;;;;;;2.90;1.00;;;;;;4157608;28;19952;-54
2021/12/12 06:20:33;;;;;;;;;;;2.90;1.00;;;;;;4161343;28;20214;-53
2021/12/12 06:22:35;;;;;;;;;;;2.90;1.00;;;;;;4158300;28;19970;-54
2021/12/12 06:24:38;;;;;;;;;;;2.90;1.00;;;;;;4154972;28;20008;-55
2021/12/12 06:26:40;;;;;;;;;;;2.90;1.00;;;;;;4155281;28;19964;-53
2021/12/12 06:28:42;;;;;;;;;;;2.90;1.00;;;;;;4161440;28;19968;-55
2021/12/12 06:30:44;;;;;;;;;;;2.90;1.00;;;;;;4157912;28;20331;-54
2021/12/12 06:32:47;;;;;;;;;;;2.90;1.00;;;;;;4160566;28;19955;-53
2021/12/12 06:34:49;;;;;;;;;;;2.90;1.00;;;;;;4162179;28;19998;-55
2021/12/12 06:36:52;;;;;;;;;;;2.90;1.00;;;;;;4169951;28;20059;-55
2021/12/12 06:38:55;;;;;;;;;;;2.90;1.00;;;;;;4159868;28;20415;-54
2021/12/12 06:40:57;;;;;;;;;;;2.90;1.00;;;;;;4160710;28;19949;-54
2021/12/12 06:43:01;;;;;;;;;;;2.90;1.00;;;;;;4186688;28;20004;-54
2021/12/12 06:45:03;;;;;;;;;;;2.90;1.00;;;;;;4160554;28;20015;-55
2021/12/12 06:47:08;;;;;;;;;;;2.90;1.00;;;;;;4168423;28;19958;-53
2021/12/12 06:49:12;;;;;;;;;;;2.90;1.00;;;;;;4156058;28;19983;-54
2021/12/12 06:51:14;;;;;;;;;;;2.90;1.00;;;;;;4171193;28;20426;-54
2021/12/12 06:53:17;;;;;;;;;;;2.90;1.00;;;;;;4155467;28;20011;-53
2021/12/12 06:55:20;;;;;;;;;;;2.90;1.00;;;;;;4153405;28;20016;-54
2021/12/12 06:57:22;;;;;;;;;;;2.90;1.00;;;;;;4155488;28;20054;-54
2021/12/12 06:59:24;;;;;;;;;;;2.90;1.00;;;;;;4161962;28;19955;-55
2021/12/12 07:01:32;;;;;;;;;;;2.90;1.00;;;;;;4160360;28;19999;-54
2021/12/12 07:03:34;;;;;;;;;;;2.90;1.00;;;;;;4175085;28;20562;-54
2021/12/12 07:05:36;;;;;;;;;;;2.90;1.00;;;;;;4155351;28;20012;-55
2021/12/12 07:07:38;;;;;;;;;;;2.90;1.00;;;;;;4166407;28;20314;-54
2021/12/12 07:09:40;;;;;;;;;;;2.90;1.00;;;;;;4154782;28;20368;-54
2021/12/12 07:11:43;;;;;;;;;;;2.90;1.00;;;;;;4171656;28;19963;-55
2021/12/12 07:13:46;;;;;;;;;;;2.90;1.00;;;;;;4152819;28;19965;-55
2021/12/12 07:15:49;;;;;;;;;;;2.90;1.00;;;;;;4157155;28;20278;-55
2021/12/12 07:17:58;;;;;;;;;;;3.00;1.00;;;;;;4160619;28;19954;-59
2021/12/12 07:20:00;;;;;;;;;;;3.00;1.00;;;;;;4170751;28;20324;-55
2021/12/12 07:22:02;;;;;;;;;;;3.10;1.00;;;;;;4162360;28;20273;-54
2021/12/12 07:24:04;;;;;;;;;;;3.10;1.00;;;;;;4152263;28;20576;-55
2021/12/12 07:26:07;;;;;;;;;;;3.10;1.00;;;;;;4155342;28;19956;-55
2021/12/12 07:28:09;;;;;;;;;;;3.00;1.00;;;;;;4171788;28;20003;-55
2021/12/12 07:30:11;;;;;;;;;;;3.00;1.00;;;;;;4168605;28;20014;-55
2021/12/12 07:32:14;;;;;;;;;;;3.00;1.00;;;;;;4153041;28;20488;-54
2021/12/12 07:34:16;;;;;;;;;;;3.00;1.00;;;;;;4157227;28;19967;-54
2021/12/12 07:36:19;;;;;;;;;;;3.00;1.00;;;;;;4162152;28;19955;-53
2021/12/12 07:38:21;;;;;;;;;;;3.00;1.00;;;;;;4187350;28;19966;-54
2021/12/12 07:40:23;;;;;;;;;;;3.00;1.00;;;;;;4158532;28;20003;-54
2021/12/12 07:42:25;;;;;;;;;;;3.00;1.00;;;;;;4149871;28;20027;-55
2021/12/12 07:44:28;;;;;;;;;;;3.00;1.00;;;;;;4160042;28;165596;-54
2021/12/12 07:46:30;;;;;;;;;;;2.90;1.00;;;;;;4208102;28;20039;-53
2021/12/12 07:48:33;;;;;;;;;;;2.90;1.00;;;;;;4176112;28;20087;-53
2021/12/12 07:50:35;;;;;;;;;;;2.90;1.00;;;;;;4177530;28;19956;-54
2021/12/12 07:52:37;;;;;;;;;;;2.90;1.00;;;;;;4177377;28;19963;-54
2021/12/12 07:54:39;;;;;;;;;;;2.90;1.00;;;;;;4176768;28;19997;-55
2021/12/12 07:56:42;;;;;;;;;;;2.90;1.00;;;;;;4173877;28;19960;-55
2021/12/12 07:58:44;;;;;;;;;;;2.90;1.00;;;;;;4172743;28;19990;-54
2021/12/12 08:00:49;;;;;;;;;;;2.90;1.00;;;;;;4172713;28;20495;-53
2021/12/12 08:02:52;;;;;;;;;;;2.90;1.00;;;;;;4166876;28;20055;-55
2021/12/12 08:04:54;;;;;;;;;;;2.90;1.00;;;;;;4173306;28;19976;-55
2021/12/12 08:06:57;;;;;;;;;;;3.00;1.00;;;;;;4177062;28;20584;-54
2021/12/12 08:09:00;;;;;;;;;;;2.90;1.00;;;;;;4175117;28;19960;-54
2021/12/12 08:11:03;;;;;;;;;;;3.00;1.00;;;;;;4174505;28;20349;-54
2021/12/12 08:13:05;;;;;;;;;;;3.00;1.00;;;;;;4207834;28;20028;-54
2021/12/12 08:15:09;;;;;;;;;;;3.00;1.00;;;;;;4177925;28;20388;-55
2021/12/12 08:17:11;;;;;;;;;;;3.00;1.00;;;;;;4204331;28;20405;-54
2021/12/12 08:19:13;;;;;;;;;;;3.00;1.00;;;;;;4172638;28;20014;-54
2021/12/12 08:21:15;;;;;;;;;;;3.00;1.00;;;;;;4174605;28;19960;-54
2021/12/12 08:23:22;;;;;;;;;;;3.00;1.00;;;;;;4171962;28;20427;-54
2021/12/12 08:25:26;;;;;;;;;;;3.10;1.00;;;;;;4176622;28;19983;-55
2021/12/12 08:27:28;;;;;;;;;;;3.00;1.00;;;;;;4175283;28;20344;-55
2021/12/12 08:29:33;;;;;;;;;;;3.00;1.00;;;;;;4177227;28;20027;-54
2021/12/12 08:31:36;;;;;;;;;;;3.00;1.00;;;;;;4163992;28;241636;-55
2021/12/12 09:12:49;;;;;;;12.23;5.93;;;;;;;;;;4136581;28;20594;-69
2021/12/12 09:16:37;;;;;;;12.38;4.38;;;;;;;;;;4240254;27;20571;-72
2021/12/12 09:18:41;;;;;;;7.72;4.05;;;;;;;;;;4212408;27;20229;-73
2021/12/12 09:24:59;;;;;;;7.25;4.30;;;;;;;16.62;52.00;99483.00;4210028;27;20538;-72
2021/12/12 09:27:04;;;;;;;14.32;7.53;;;;;;;15.40;55.44;99480.38;4203047;27;20238;-69
2021/12/12 09:37:56;;;;;;;5.47;4.35;;;;;;;8.96;50.57;99484.03;4196891;27;20399;-48
2021/12/12 09:40:09;;;;;;;8.82;2.90;;;;;;;7.24;55.29;99484.50;4169240;28;20266;-48
2021/12/12 09:42:33;;;;;;;7.47;2.53;;;;;;;5.83;58.73;99495.22;4175405;28;20212;-48
2021/12/12 09:44:55;;;;;;;3.85;2.58;;;;;;;5.37;61.08;99496.63;4027118;28;20241;-49
2021/12/12 09:47:58;;;;;;;3.97;2.47;;;;;;;5.11;62.36;99496.34;4117447;28;20259;-49
2021/12/12 09:52:42;;;;;;;3.95;3.15;;;;;;;4.30;64.96;99501.13;4136608;28;20201;-48
2021/12/12 09:55:02;;;;;;;5.95;3.28;;;;;;;4.23;65.70;99499.31;4128662;28;20235;-48
2021/12/12 09:57:04;;;;;;;4.18;3.33;;;;;;;4.10;66.27;99482.88;4138618;28;20217;-49
2021/12/12 09:59:09;;;;;;;4.40;3.05;;;;;;;4.00;66.53;99493.97;4140033;28;20270;-48
2021/12/12 10:01:25;;;;;;;6.80;3.45;;;;;;;3.92;66.46;99502.19;4140512;28;20594;-48
2021/12/12 10:03:30;;;;;;;5.15;3.30;;;;;;;3.88;67.20;99503.56;4152398;28;20225;-49
2021/12/12 10:05:52;;;;;;;6.60;3.08;;;;;;;3.87;67.48;99501.88;4140768;28;20463;-48
2021/12/12 10:08:03;;;;;;;7.07;4.07;;;;;;;3.90;67.84;99492.56;4168593;28;20246;-47
2021/12/12 10:10:12;;;;;;;4.05;3.70;;;;;;;3.96;68.10;99494.53;4167873;28;20693;-48
2021/12/12 10:12:18;;;;;;;3.33;2.45;;;;;;;3.90;68.05;99498.84;4154056;28;20230;-48
2021/12/12 10:14:29;;;;;;;5.03;2.92;;;;;;;3.91;68.22;99499.66;4180982;28;20302;-48
2021/12/12 10:16:57;;;;;;;4.75;3.63;;;;;;;3.99;68.36;99492.31;4169312;28;20212;-48
2021/12/12 10:19:28;;;;;;;12.57;3.80;;;;;;;3.95;68.79;99484.72;4183390;28;20199;-48
2021/12/12 10:21:38;;;;;;;4.45;3.22;;;;;;;3.95;68.64;99490.97;4166463;28;20670;-48
2021/12/12 10:23:43;;;;;;;6.47;3.42;;;;;;;4.00;69.01;99488.56;4149020;28;20616;-47
2021/12/12 10:25:45;;;;;;;4.25;3.03;;;;;;;3.98;69.44;99487.06;4152926;28;20232;-48
2021/12/12 10:27:51;;;;;;;7.35;2.88;;;;;;;4.07;69.15;99489.50;4162382;28;20319;-48
2021/12/12 10:29:53;;;;;;;7.13;3.97;;;;;;;4.06;69.08;99487.81;4182367;28;20242;-48
2021/12/12 10:32:04;;;;;;;7.15;5.28;;;;;;;4.12;69.20;99480.81;4159278;28;21047;-48
2021/12/12 10:34:34;;;;;;;5.53;3.72;;;;;;;4.12;69.64;99481.66;4166767;28;20744;-48
2021/12/12 10:36:37;;;;;;;16.45;3.63;;;;;;;4.13;69.81;99477.94;4130444;28;20279;-48
2021/12/12 10:38:45;;;;;;;12.65;3.83;;;;;;;4.16;69.74;99477.56;4170621;28;20743;-47
2021/12/12 10:41:16;;;;;;;5.40;4.10;;;;;;;4.10;69.28;99483.72;4163816;28;20207;-48
2021/12/12 10:43:27;;;;;;;10.52;3.00;;;;;;;4.12;70.05;99465.41;4148759;28;20212;-48
2021/12/12 10:45:44;;;;;;;4.10;2.83;;;;;;;4.15;69.45;99470.44;4148692;28;20205;-49
2021/12/12 10:47:49;;;;;;;4.82;3.53;;;;;;;4.22;69.42;99466.00;4154456;28;20227;-48
2021/12/12 10:50:21;;;;;;;8.07;2.63;;;;;;;4.16;69.65;99461.31;4166814;28;20208;-47
2021/12/12 10:52:43;;;;;;;6.63;3.70;;;;;;;4.23;69.73;99456.84;4137874;28;20206;-48
2021/12/12 10:54:53;;;;;;;7.35;3.15;;;;;;;4.25;69.98;99464.75;4132322;28;20233;-48
2021/12/12 10:57:15;;;;;;;8.80;3.33;;;;;;;4.25;70.36;99453.94;4154919;28;20250;-47
2021/12/12 10:59:37;;;;;;;8.90;6.50;;;;;;;4.26;70.32;99451.03;4171642;28;20263;-49
2021/12/12 11:01:43;;;;;;;7.18;3.33;;;;;;;4.33;70.83;99457.38;4172173;28;20294;-49
2021/12/12 11:03:49;;;;;;;16.48;5.53;;;;;;;4.43;70.47;99457.94;4169034;28;20224;-49
2021/12/12 11:06:04;;;;;;;11.45;4.10;;;;;;;4.45;70.57;99458.59;4144327;28;20204;-52
2021/12/12 11:08:11;;;;;;;5.72;3.20;;;;;;;4.55;70.07;99456.44;4144399;28;20623;-51
2021/12/12 11:10:35;;;;;;;6.88;3.55;;;;;;;4.52;70.22;99456.81;4144746;28;20240;-51
2021/12/12 11:12:57;;;;;;;7.75;3.30;;;;;;;4.64;70.95;99455.31;4142362;28;20213;-52
2021/12/12 11:15:27;;;;;;;10.50;4.32;;;;;;;4.57;70.88;99459.81;4142033;28;20229;-51
2021/12/12 11:17:37;;;;;;;5.55;3.90;;;;;;;4.58;70.47;99456.06;4176158;28;20212;-52
2021/12/12 11:19:47;;;;;;;4.43;3.95;;;;;;;4.60;70.66;99454.00;4172298;28;20196;-51
2021/12/12 11:21:53;;;;;;;6.10;2.95;;;;;;;4.58;71.12;99456.06;4142164;28;20213;-51
2021/12/12 11:24:05;;;;;;;6.50;2.50;;;;;;;4.56;70.92;99458.13;4143093;28;20722;-51
2021/12/12 11:26:22;;;;;;;8.68;4.00;;;;;;;4.51;71.52;99463.25;4143799;28;20590;-52
2021/12/12 11:28:30;;;;;;;4.03;2.60;;;;;;;4.50;71.54;99469.72;4172969;28;20208;-54
2021/12/12 11:30:42;;;;;;;6.47;4.20;;;;;;;4.51;72.17;99462.41;4172959;28;20262;-52
2021/12/12 11:32:49;;;;;;;6.00;3.83;;;;;;;4.38;72.22;99459.53;4160591;28;20305;-53
2021/12/12 11:34:54;;;;;;;10.10;5.03;;;;;;;4.49;72.39;99468.03;4160907;28;20240;-51
2021/12/12 11:37:17;;;;;;;10.32;5.05;;;;;;;4.42;72.47;99456.28;4139124;28;20233;-52
2021/12/12 11:39:30;;;;;;;8.52;4.13;;;;;;;4.49;72.37;99457.19;4137254;28;20260;-51
2021/12/12 11:42:16;;;;;;;8.85;4.75;;;;;;;4.37;72.52;99458.69;4143040;28;20679;-51
2021/12/12 11:44:30;;;;;;;7.95;5.13;;;;;;;4.38;73.12;99457.66;4140222;28;20245;-51
2021/12/12 11:46:39;;;;;;;5.70;3.40;;;;;;;4.38;73.08;99454.97;4143660;28;20201;-50
2021/12/12 11:49:06;;;;;;;6.85;4.47;;;;;;;4.44;72.99;99448.78;4158122;28;20205;-50
2021/12/12 11:51:15;;;;;;;4.35;3.95;;;;;;;4.48;73.87;99450.06;4123968;28;20268;-51
2021/12/12 11:53:35;;;;;;;5.68;4.00;;;;;;;4.46;73.53;99446.72;4168557;28;20208;-51
2021/12/12 11:55:42;;;;;;;7.88;3.53;;;;;;;4.51;73.55;99451.56;4141441;28;20628;-50
2021/12/12 11:57:54;;;;;;;5.82;4.50;;;;;;;4.60;74.18;99454.00;4174173;28;20223;-50
2021/12/12 12:00:08;;;;;;;5.40;4.95;;;;;;;4.70;74.21;99459.97;4142682;28;20237;-51
2021/12/12 12:02:36;;;;;;;9.50;5.80;;;;;;;4.64;74.56;99452.59;4158524;28;20197;-50
2021/12/12 12:04:55;;;;;;;14.90;4.47;;;;;;;4.61;73.83;99450.25;4171164;28;20643;-51
2021/12/12 12:07:09;;;;;;;9.07;3.45;;;;;;;4.64;73.30;99449.03;4171575;28;20204;-51
2021/12/12 12:09:30;;;;;;;14.50;5.43;;;;;;;4.54;73.54;99443.91;4173181;28;20200;-51
2021/12/12 12:12:05;;;;;;;4.85;4.30;;;;;;;4.56;73.92;99439.16;4140293;28;20210;-51
2021/12/12 12:14:18;;;;;;;9.90;4.60;;;;;;;4.60;74.12;99437.72;4160019;28;20228;-51
2021/12/12 12:16:28;;;;;;;9.52;6.55;;;;;;;4.53;74.22;99431.38;4173783;28;20242;-51
2021/12/12 12:19:01;;;;;;;10.60;5.93;;;;;;;4.66;73.78;99436.16;4159173;28;20204;-51
2021/12/12 12:21:24;;;;;;;7.32;6.57;;;;;;;4.63;74.43;99436.50;4160285;28;20201;-50
2021/12/12 12:24:12;;;;;;;12.85;4.05;;;;;;;4.64;74.28;99427.34;4144095;28;20224;-50
2021/12/12 12:28:44;;;;;;;4.63;3.25;;;;;;;4.61;74.94;99444.81;4144093;28;20675;-50
2021/12/12 12:31:11;;;;;;;9.73;3.70;;;;;;;4.63;74.30;99439.22;4144473;28;20227;-51
2021/12/12 12:33:13;;;;;;;6.22;3.45;;;;;;;4.55;74.84;99436.63;4155680;28;20292;-51
2021/12/12 12:35:29;;;;;;;5.65;3.60;;;;;;;4.63;74.69;99437.38;4154397;28;20269;-50
2021/12/12 12:37:50;;;;;;;7.80;6.10;;;;;;;4.56;75.34;99436.44;4145205;28;20260;-50
2021/12/12 12:40:29;;;;;;;5.47;4.47;;;;;;;4.62;74.63;99434.84;4159046;28;20216;-51
2021/12/12 12:43:08;;;;;;;11.20;3.55;;;;;;;4.71;74.91;99442.66;4155295;28;20199;-51
2021/12/12 12:45:31;;;;;;;11.73;4.60;;;;;;;4.75;74.81;99441.28;4155888;28;20204;-51
2021/12/12 12:48:04;;;;;;;3.95;3.60;;;;;;;4.81;74.60;99435.06;4158613;28;20239;-50
2021/12/12 12:50:31;;;;;;;5.22;3.70;;;;;;;4.87;73.86;99439.72;4138016;28;20271;-50
2021/12/12 12:52:42;;;;;;;7.68;3.78;;;;;;;4.93;73.74;99432.72;4156674;28;20254;-50
2021/12/12 12:54:45;;;;;;;6.22;3.70;;;;;;;4.97;74.38;99429.41;4156048;28;20232;-50
2021/12/12 12:57:09;;;;;;;8.45;3.33;;;;;;;4.99;74.38;99438.19;4171171;28;20662;-50
2021/12/12 12:59:36;;;;;;;6.30;3.97;;;;;;;5.04;74.11;99431.16;4158636;28;20274;-50
2021/12/12 13:01:56;;;;;;;4.05;3.35;;;;;;;5.07;74.17;99429.94;4152701;28;20272;-50
2021/12/12 13:04:01;;;;;;;3.20;2.88;;;;;;;4.97;73.81;99430.25;4156343;28;20311;-49
2021/12/12 13:06:07;;;;;;;4.82;4.03;;;;;;;5.13;73.84;99440.00;4141125;28;20210;-50
2021/12/12 13:08:27;;;;;;;5.85;4.45;;;;;;;5.14;73.48;99431.69;4156938;28;20634;-50
2021/12/12 13:10:31;;;;;;;6.32;3.63;;;;;;;5.16;73.87;99436.94;4155775;28;20204;-51